sensor_id;sensor_type;location;lat;lon;timestamp;pressure;altitude;pressure_sealevel;temperature;humidity
68193;BME280;55012;47.562;18.414;2022-08-19T00:01:53;98776.97;;;26.52;100.00
68193;BME280;55012;47.562;18.414;2022-08-19T00:04:29;98773.56;;;26.48;100.00
68193;BME280;55012;47.562;18.414;2022-08-19T00:06:55;98773.72;;;26.44;100.00
68193;BME280;55012;47.562;18.414;2022-08-19T00:09:22;98779.75;;;26.43;100.00
68193;BME280;55012;47.562;18.414;2022-08-19T00:11:49;98781.47;;;26.40;100.00
68193;BME280;55012;47.562;18.414;2022-08-19T00:14:16;98783.09;;;26.38;100.00
68193;BME280;55012;47.562;18.414;2022-08-19T00:16:45;98782.66;;;26.39;100.00
68193;BME280;55012;47.562;18.414;2022-08-19T00:19:11;98778.78;;;26.37;100.00
68193;BME280;55012;47.562;18.414;2022-08-19T00:21:36;98776.94;;;26.33;100.00
68193;BME280;55012;47.562;18.414;2022-08-19T00:24:05;98795.59;;;26.33;100.00
68193;BME280;55012;47.562;18.414;2022-08-19T00:26:32;98788.50;;;26.32;100.00
68193;BME280;55012;47.562;18.414;2022-08-19T00:28:58;98784.19;;;26.31;100.00
68193;BME280;55012;47.562;18.414;2022-08-19T00:31:25;98782.63;;;26.30;100.00
68193;BME280;55012;47.562;18.414;2022-08-19T00:33:52;98782.34;;;26.28;100.00
68193;BME280;55012;47.562;18.414;2022-08-19T00:36:17;98770.19;;;26.25;100.00
68193;BME280;55012;47.562;18.414;2022-08-19T00:38:43;98772.94;;;26.25;100.00
68193;BME280;55012;47.562;18.414;2022-08-19T00:41:17;98753.25;;;26.23;100.00
68193;BME280;55012;47.562;18.414;2022-08-19T00:44:04;98754.44;;;26.22;100.00
68193;BME280;55012;47.562;18.414;2022-08-19T00:46:30;98764.47;;;26.20;100.00
68193;BME280;55012;47.562;18.414;2022-08-19T00:48:58;98764.16;;;26.18;100.00
68193;BME280;55012;47.562;18.414;2022-08-19T00:51:27;98765.06;;;26.15;100.00
68193;BME280;55012;47.562;18.414;2022-08-19T00:53:56;98757.84;;;26.08;100.00
68193;BME280;55012;47.562;18.414;2022-08-19T00:56:22;98762.31;;;26.05;100.00
68193;BME280;55012;47.562;18.414;2022-08-19T00:58:48;98754.16;;;26.02;100.00
68193;BME280;55012;47.562;18.414;2022-08-19T01:01:14;98763.84;;;25.97;100.00
68193;BME280;55012;47.562;18.414;2022-08-19T01:03:40;98760.00;;;25.95;100.00
68193;BME280;55012;47.562;18.414;2022-08-19T01:06:06;98751.84;;;25.91;100.00
68193;BME280;55012;47.562;18.414;2022-08-19T01:08:32;98753.06;;;25.90;100.00
68193;BME280;55012;47.562;18.414;2022-08-19T01:10:59;98748.13;;;25.85;100.00
68193;BME280;55012;47.562;18.414;2022-08-19T01:13:29;98736.75;;;25.83;100.00
68193;BME280;55012;47.562;18.414;2022-08-19T01:16:00;98747.06;;;25.83;100.00
68193;BME280;55012;47.562;18.414;2022-08-19T01:18:27;98738.56;;;25.77;100.00
68193;BME280;55012;47.562;18.414;2022-08-19T01:20:56;98737.81;;;25.76;100.00
68193;BME280;55012;47.562;18.414;2022-08-19T01:23:23;98732.72;;;25.75;100.00
68193;BME280;55012;47.562;18.414;2022-08-19T01:26:09;98734.88;;;25.71;100.00
68193;BME280;55012;47.562;18.414;2022-08-19T01:28:36;98728.22;;;25.68;100.00
68193;BME280;55012;47.562;18.414;2022-08-19T01:31:02;98718.06;;;25.65;100.00
68193;BME280;55012;47.562;18.414;2022-08-19T01:33:27;98726.38;;;25.65;100.00
68193;BME280;55012;47.562;18.414;2022-08-19T01:36:04;98729.28;;;25.62;100.00
68193;BME280;55012;47.562;18.414;2022-08-19T01:38:30;98720.97;;;25.62;100.00
68193;BME280;55012;47.562;18.414;2022-08-19T01:40:56;98720.81;;;25.56;100.00
68193;BME280;55012;47.562;18.414;2022-08-19T01:43:22;98728.53;;;25.61;100.00
68193;BME280;55012;47.562;18.414;2022-08-19T01:45:48;98721.44;;;25.60;100.00
68193;BME280;55012;47.562;18.414;2022-08-19T01:48:13;98746.06;;;25.58;100.00
68193;BME280;55012;47.562;18.414;2022-08-19T01:50:39;98748.06;;;25.58;100.00
68193;BME280;55012;47.562;18.414;2022-08-19T01:53:09;98722.50;;;25.54;100.00
68193;BME280;55012;47.562;18.414;2022-08-19T01:55:37;98725.56;;;25.56;100.00
68193;BME280;55012;47.562;18.414;2022-08-19T01:58:04;98718.97;;;25.53;100.00
68193;BME280;55012;47.562;18.414;2022-08-19T02:00:31;98712.19;;;25.54;100.00
68193;BME280;55012;47.562;18.414;2022-08-19T02:02:57;98713.72;;;25.55;100.00
68193;BME280;55012;47.562;18.414;2022-08-19T02:05:23;98695.25;;;25.52;100.00
68193;BME280;55012;47.562;18.414;2022-08-19T02:07:49;98700.03;;;25.52;100.00
68193;BME280;55012;47.562;18.414;2022-08-19T02:10:19;98688.19;;;25.51;100.00
68193;BME280;55012;47.562;18.414;2022-08-19T02:12:45;98691.84;;;25.48;100.00
68193;BME280;55012;47.562;18.414;2022-08-19T02:15:11;98700.94;;;25.48;100.00
68193;BME280;55012;47.562;18.414;2022-08-19T02:17:37;98696.31;;;25.45;100.00
68193;BME280;55012;47.562;18.414;2022-08-19T02:20:03;98697.56;;;25.44;100.00
68193;BME280;55012;47.562;18.414;2022-08-19T02:22:29;98702.31;;;25.44;100.00
68193;BME280;55012;47.562;18.414;2022-08-19T02:24:55;98708.63;;;25.44;100.00
68193;BME280;55012;47.562;18.414;2022-08-19T02:27:21;98716.63;;;25.42;100.00
68193;BME280;55012;47.562;18.414;2022-08-19T02:29:48;98715.41;;;25.43;100.00
68193;BME280;55012;47.562;18.414;2022-08-19T02:32:15;98704.78;;;25.42;100.00
68193;BME280;55012;47.562;18.414;2022-08-19T02:34:40;98708.78;;;25.41;100.00
68193;BME280;55012;47.562;18.414;2022-08-19T02:37:06;98708.47;;;25.39;100.00
68193;BME280;55012;47.562;18.414;2022-08-19T02:39:52;98708.47;;;25.39;100.00
68193;BME280;55012;47.562;18.414;2022-08-19T02:42:17;98710.16;;;25.36;100.00
68193;BME280;55012;47.562;18.414;2022-08-19T02:44:43;98698.00;;;25.34;100.00
68193;BME280;55012;47.562;18.414;2022-08-19T02:47:09;98706.78;;;25.32;100.00
68193;BME280;55012;47.562;18.414;2022-08-19T02:49:35;98707.22;;;25.31;100.00
68193;BME280;55012;47.562;18.414;2022-08-19T02:52:02;98711.97;;;25.30;100.00
68193;BME280;55012;47.562;18.414;2022-08-19T02:54:27;98711.22;;;25.30;100.00
68193;BME280;55012;47.562;18.414;2022-08-19T02:56:53;98726.59;;;25.31;100.00
68193;BME280;55012;47.562;18.414;2022-08-19T02:59:19;98726.28;;;25.29;100.00
68193;BME280;55012;47.562;18.414;2022-08-19T03:01:45;98734.59;;;25.29;100.00
68193;BME280;55012;47.562;18.414;2022-08-19T03:04:15;98729.50;;;25.27;100.00
68193;BME280;55012;47.562;18.414;2022-08-19T03:06:44;98729.97;;;25.26;100.00
68193;BME280;55012;47.562;18.414;2022-08-19T03:09:10;98735.19;;;25.24;100.00
68193;BME280;55012;47.562;18.414;2022-08-19T03:11:37;98744.72;;;25.23;100.00
68193;BME280;55012;47.562;18.414;2022-08-19T03:14:04;98733.63;;;25.23;100.00
68193;BME280;55012;47.562;18.414;2022-08-19T03:16:36;98734.88;;;25.21;100.00
68193;BME280;55012;47.562;18.414;2022-08-19T03:19:04;98738.56;;;25.18;100.00
68193;BME280;55012;47.562;18.414;2022-08-19T03:21:31;98734.72;;;25.16;100.00
68193;BME280;55012;47.562;18.414;2022-08-19T03:24:01;98738.69;;;25.15;100.00
68193;BME280;55012;47.562;18.414;2022-08-19T03:26:28;98746.22;;;25.14;100.00
68193;BME280;55012;47.562;18.414;2022-08-19T03:28:54;98741.91;;;25.13;100.00
68193;BME280;55012;47.562;18.414;2022-08-19T03:31:21;98734.06;;;25.12;100.00
68193;BME280;55012;47.562;18.414;2022-08-19T03:33:48;98738.38;;;25.13;100.00
68193;BME280;55012;47.562;18.414;2022-08-19T03:36:18;98751.31;;;25.16;100.00
68193;BME280;55012;47.562;18.414;2022-08-19T03:38:46;98767.94;;;25.16;100.00
68193;BME280;55012;47.562;18.414;2022-08-19T03:41:17;98758.81;;;25.15;100.00
68193;BME280;55012;47.562;18.414;2022-08-19T03:43:44;98764.06;;;25.13;100.00
68193;BME280;55012;47.562;18.414;2022-08-19T03:46:16;98758.81;;;25.15;100.00
68193;BME280;55012;47.562;18.414;2022-08-19T03:48:43;98757.28;;;25.14;100.00
68193;BME280;55012;47.562;18.414;2022-08-19T03:51:18;98748.22;;;25.14;100.00
68193;BME280;55012;47.562;18.414;2022-08-19T03:53:45;98745.44;;;25.14;100.00
68193;BME280;55012;47.562;18.414;2022-08-19T03:56:11;98754.97;;;25.13;100.00
68193;BME280;55012;47.562;18.414;2022-08-19T03:58:38;98755.75;;;25.13;100.00
68193;BME280;55012;47.562;18.414;2022-08-19T04:01:16;98757.75;;;25.13;100.00
68193;BME280;55012;47.562;18.414;2022-08-19T04:03:43;98752.66;;;25.11;100.00
68193;BME280;55012;47.562;18.414;2022-08-19T04:06:22;98743.59;;;25.11;100.00
68193;BME280;55012;47.562;18.414;2022-08-19T04:08:50;98752.66;;;25.11;100.00
68193;BME280;55012;47.562;18.414;2022-08-19T04:11:18;98743.75;;;25.07;100.00
68193;BME280;55012;47.562;18.414;2022-08-19T04:13:45;98740.97;;;25.07;100.00
68193;BME280;55012;47.562;18.414;2022-08-19T04:16:11;98740.84;;;25.11;100.00
68193;BME280;55012;47.562;18.414;2022-08-19T04:18:38;98748.97;;;25.14;100.00
68193;BME280;55012;47.562;18.414;2022-08-19T04:21:05;98757.28;;;25.14;100.00
68193;BME280;55012;47.562;18.414;2022-08-19T04:23:31;98758.81;;;25.15;100.00
68193;BME280;55012;47.562;18.414;2022-08-19T04:25:56;98767.13;;;25.15;100.00
68193;BME280;55012;47.562;18.414;2022-08-19T04:28:25;98753.28;;;25.15;100.00
68193;BME280;55012;47.562;18.414;2022-08-19T04:30:52;98748.56;;;25.16;100.00
68193;BME280;55012;47.562;18.414;2022-08-19T04:33:21;98751.31;;;25.16;100.00
68193;BME280;55012;47.562;18.414;2022-08-19T04:35:48;98763.16;;;25.16;100.00
68193;BME280;55012;47.562;18.414;2022-08-19T04:38:15;98746.56;;;25.16;100.00
68193;BME280;55012;47.562;18.414;2022-08-19T04:40:43;98751.31;;;25.16;100.00
68193;BME280;55012;47.562;18.414;2022-08-19T04:43:44;98752.09;;;25.16;100.00
68193;BME280;55012;47.562;18.414;2022-08-19T04:46:13;98747.75;;;25.15;100.00
68193;BME280;55012;47.562;18.414;2022-08-19T04:48:39;98755.63;;;25.17;100.00
68193;BME280;55012;47.562;18.414;2022-08-19T04:51:10;98750.41;;;25.19;100.00
68193;BME280;55012;47.562;18.414;2022-08-19T04:53:38;98745.63;;;25.19;100.00
68193;BME280;55012;47.562;18.414;2022-08-19T04:56:11;98729.78;;;25.20;100.00
68193;BME280;55012;47.562;18.414;2022-08-19T04:58:38;98744.41;;;25.20;100.00
68193;BME280;55012;47.562;18.414;2022-08-19T05:01:04;98743.16;;;25.21;100.00
68193;BME280;55012;47.562;18.414;2022-08-19T05:03:30;98750.25;;;25.23;100.00
68193;BME280;55012;47.562;18.414;2022-08-19T05:06:10;98760.44;;;25.26;100.00
68193;BME280;55012;47.562;18.414;2022-08-19T05:08:38;98755.34;;;25.24;100.00
68193;BME280;55012;47.562;18.414;2022-08-19T05:11:21;98757.97;;;25.28;100.00
68193;BME280;55012;47.562;18.414;2022-08-19T05:13:47;98746.31;;;25.33;100.00
68193;BME280;55012;47.562;18.414;2022-08-19T05:16:18;98740.63;;;25.36;100.00
68193;BME280;55012;47.562;18.414;2022-08-19T05:18:44;98747.56;;;25.41;100.00
68193;BME280;55012;47.562;18.414;2022-08-19T05:21:29;98746.63;;;25.44;100.00
68193;BME280;55012;47.562;18.414;2022-08-19T05:24:14;98750.66;;;25.52;100.00
68193;BME280;55012;47.562;18.414;2022-08-19T05:26:42;98743.59;;;25.60;100.00
68193;BME280;55012;47.562;18.414;2022-08-19T05:29:09;98750.53;;;25.65;100.00
68193;BME280;55012;47.562;18.414;2022-08-19T05:31:36;98746.38;;;25.69;100.00
68193;BME280;55012;47.562;18.414;2022-08-19T05:34:02;98745.81;;;25.74;100.00
68193;BME280;55012;47.562;18.414;2022-08-19T05:36:34;98749.50;;;25.81;100.00
68193;BME280;55012;47.562;18.414;2022-08-19T05:38:59;98751.66;;;25.86;100.00
68193;BME280;55012;47.562;18.414;2022-08-19T05:41:25;98759.38;;;25.91;100.00
68193;BME280;55012;47.562;18.414;2022-08-19T05:43:55;98748.91;;;25.95;100.00
68193;BME280;55012;47.562;18.414;2022-08-19T05:46:21;98753.53;;;25.98;100.00
68193;BME280;55012;47.562;18.414;2022-08-19T05:48:47;98758.94;;;26.01;100.00
68193;BME280;55012;47.562;18.414;2022-08-19T05:51:13;98751.97;;;26.06;100.00
68193;BME280;55012;47.562;18.414;2022-08-19T05:53:39;98756.63;;;26.09;100.00
68193;BME280;55012;47.562;18.414;2022-08-19T05:56:10;98731.19;;;26.11;100.00
68193;BME280;55012;47.562;18.414;2022-08-19T05:58:37;98732.28;;;26.13;100.00
68193;BME280;55012;47.562;18.414;2022-08-19T06:01:04;98732.59;;;26.15;100.00
68193;BME280;55012;47.562;18.414;2022-08-19T06:03:34;98735.22;;;26.19;100.00
68193;BME280;55012;47.562;18.414;2022-08-19T06:06:01;98746.13;;;26.22;100.00
68193;BME280;55012;47.562;18.414;2022-08-19T06:08:28;98751.22;;;26.24;100.00
68193;BME280;55012;47.562;18.414;2022-08-19T06:10:54;98761.38;;;26.27;100.00
68193;BME280;55012;47.562;18.414;2022-08-19T06:13:20;98759.38;;;26.27;100.00
68193;BME280;55012;47.562;18.414;2022-08-19T06:15:46;98776.31;;;26.29;100.00
68193;BME280;55012;47.562;18.414;2022-08-19T06:18:13;98783.28;;;26.34;100.00
68193;BME280;55012;47.562;18.414;2022-08-19T06:20:39;98783.09;;;26.38;100.00
68193;BME280;55012;47.562;18.414;2022-08-19T06:23:05;98783.75;;;26.42;100.00
68193;BME280;55012;47.562;18.414;2022-08-19T06:25:31;98785.13;;;26.46;100.00
68193;BME280;55012;47.562;18.414;2022-08-19T06:27:57;98795.63;;;26.51;100.00
68193;BME280;55012;47.562;18.414;2022-08-19T06:30:22;98799.75;;;26.56;100.00
68193;BME280;55012;47.562;18.414;2022-08-19T06:32:48;98815.50;;;26.59;100.00
68193;BME280;55012;47.562;18.414;2022-08-19T06:35:13;98835.50;;;26.63;100.00
68193;BME280;55012;47.562;18.414;2022-08-19T06:37:40;98835.66;;;26.69;100.00
68193;BME280;55012;47.562;18.414;2022-08-19T06:40:07;98836.28;;;26.73;100.00
68193;BME280;55012;47.562;18.414;2022-08-19T06:42:34;98837.66;;;26.77;100.00
68193;BME280;55012;47.562;18.414;2022-08-19T06:45:00;98845.38;;;26.82;100.00
68193;BME280;55012;47.562;18.414;2022-08-19T06:47:29;98846.75;;;26.87;100.00
68193;BME280;55012;47.562;18.414;2022-08-19T06:49:56;98843.06;;;26.90;100.00
68193;BME280;55012;47.562;18.414;2022-08-19T06:52:31;98836.84;;;26.95;100.00
68193;BME280;55012;47.562;18.414;2022-08-19T06:54:57;98839.50;;;26.99;100.00
68193;BME280;55012;47.562;18.414;2022-08-19T06:57:26;98851.19;;;27.03;100.00
68193;BME280;55012;47.562;18.414;2022-08-19T06:59:52;98849.84;;;27.07;100.00
68193;BME280;55012;47.562;18.414;2022-08-19T07:02:18;98845.16;;;27.13;100.00
68193;BME280;55012;47.562;18.414;2022-08-19T07:04:44;98846.56;;;27.18;100.00
68193;BME280;55012;47.562;18.414;2022-08-19T07:07:12;98836.97;;;27.28;100.00
68193;BME280;55012;47.562;18.414;2022-08-19T07:09:43;98836.16;;;27.37;100.00
68193;BME280;55012;47.562;18.414;2022-08-19T07:12:10;98831.50;;;27.43;100.00
68193;BME280;55012;47.562;18.414;2022-08-19T07:14:37;98826.19;;;27.54;100.00
68193;BME280;55012;47.562;18.414;2022-08-19T07:17:06;98823.84;;;27.62;100.00
68193;BME280;55012;47.562;18.414;2022-08-19T07:19:33;98817.03;;;27.72;100.00
68193;BME280;55012;47.562;18.414;2022-08-19T07:22:04;98820.56;;;27.82;100.00
68193;BME280;55012;47.562;18.414;2022-08-19T07:24:31;98821.31;;;27.82;100.00
68193;BME280;55012;47.562;18.414;2022-08-19T07:26:59;98819.41;;;27.88;100.00
68193;BME280;55012;47.562;18.414;2022-08-19T07:29:29;98818.47;;;27.91;100.00
68193;BME280;55012;47.562;18.414;2022-08-19T07:31:56;98811.66;;;27.92;100.00
68193;BME280;55012;47.562;18.414;2022-08-19T07:34:25;98818.78;;;27.93;100.00
68193;BME280;55012;47.562;18.414;2022-08-19T07:36:52;98815.50;;;27.95;100.00
68193;BME280;55012;47.562;18.414;2022-08-19T07:39:30;98816.59;;;27.97;100.00
68193;BME280;55012;47.562;18.414;2022-08-19T07:41:57;98814.38;;;28.02;100.00
68193;BME280;55012;47.562;18.414;2022-08-19T07:44:23;98813.06;;;28.12;100.00
68193;BME280;55012;47.562;18.414;2022-08-19T07:46:53;98823.69;;;28.22;100.00
68193;BME280;55012;47.562;18.414;2022-08-19T07:49:20;98822.97;;;28.37;100.00
68193;BME280;55012;47.562;18.414;2022-08-19T07:51:51;98827.28;;;28.38;100.00
68193;BME280;55012;47.562;18.414;2022-08-19T07:54:19;98826.63;;;28.43;100.00
68193;BME280;55012;47.562;18.414;2022-08-19T07:56:45;98822.19;;;28.36;100.00
68193;BME280;55012;47.562;18.414;2022-08-19T07:59:10;98830.06;;;28.38;100.00
68193;BME280;55012;47.562;18.414;2022-08-19T08:01:37;98821.00;;;28.28;100.00
68193;BME280;55012;47.562;18.414;2022-08-19T08:04:06;98824.53;;;28.28;100.00
68193;BME280;55012;47.562;18.414;2022-08-19T08:06:51;98811.75;;;28.31;100.00
68193;BME280;55012;47.562;18.414;2022-08-19T08:09:37;98799.84;;;28.31;100.00
68193;BME280;55012;47.562;18.414;2022-08-19T08:12:09;98785.94;;;28.31;100.00
68193;BME280;55012;47.562;18.414;2022-08-19T08:17:08;98776.69;;;28.24;100.00
68193;BME280;55012;47.562;18.414;2022-08-19T08:19:34;98777.81;;;28.18;100.00
68193;BME280;55012;47.562;18.414;2022-08-19T08:22:01;98777.53;;;28.16;100.00
68193;BME280;55012;47.562;18.414;2022-08-19T08:24:29;98766.41;;;28.16;100.00
68193;BME280;55012;47.562;18.414;2022-08-19T08:26:56;98771.69;;;28.14;100.00
68193;BME280;55012;47.562;18.414;2022-08-19T08:29:24;98765.91;;;28.17;100.00
68193;BME280;55012;47.562;18.414;2022-08-19T08:31:51;98764.78;;;28.24;100.00
68193;BME280;55012;47.562;18.414;2022-08-19T08:34:16;98761.72;;;28.22;100.00
68193;BME280;55012;47.562;18.414;2022-08-19T08:36:44;98758.47;;;28.23;100.00
68193;BME280;55012;47.562;18.414;2022-08-19T08:39:20;98752.13;;;28.23;100.00
68193;BME280;55012;47.562;18.414;2022-08-19T08:44:23;98745.81;;;28.22;100.00
68193;BME280;55012;47.562;18.414;2022-08-19T08:46:59;98744.84;;;28.25;100.00
68193;BME280;55012;47.562;18.414;2022-08-19T08:52:05;98741.72;;;28.33;100.00
68193;BME280;55012;47.562;18.414;2022-08-19T08:54:45;98741.72;;;28.33;100.00
68193;BME280;55012;47.562;18.414;2022-08-19T08:57:24;98734.69;;;28.37;100.00
68193;BME280;55012;47.562;18.414;2022-08-19T08:59:53;98725.22;;;28.44;100.00
68193;BME280;55012;47.562;18.414;2022-08-19T09:02:21;98715.13;;;28.46;100.00
68193;BME280;55012;47.562;18.414;2022-08-19T09:04:46;98722.66;;;28.55;100.00
68193;BME280;55012;47.562;18.414;2022-08-19T09:07:26;98715.72;;;28.65;100.00
68193;BME280;55012;47.562;18.414;2022-08-19T09:10:14;98718.31;;;28.69;100.00
68193;BME280;55012;47.562;18.414;2022-08-19T09:13:11;98719.56;;;28.68;100.00
68193;BME280;55012;47.562;18.414;2022-08-19T09:15:43;98715.53;;;28.69;100.00
68193;BME280;55012;47.562;18.414;2022-08-19T09:18:11;98713.59;;;28.75;100.00
68193;BME280;55012;47.562;18.414;2022-08-19T09:20:37;98713.88;;;28.77;100.00
68193;BME280;55012;47.562;18.414;2022-08-19T09:23:03;98698.72;;;28.78;100.00
68193;BME280;55012;47.562;18.414;2022-08-19T09:25:28;98693.25;;;28.83;100.00
68193;BME280;55012;47.562;18.414;2022-08-19T09:27:56;98698.81;;;28.98;100.00
68193;BME280;55012;47.562;18.414;2022-08-19T09:30:26;98693.09;;;29.22;100.00
68193;BME280;55012;47.562;18.414;2022-08-19T09:32:51;98697.25;;;29.12;100.00
68193;BME280;55012;47.562;18.414;2022-08-19T09:35:25;98686.22;;;29.03;100.00
68193;BME280;55012;47.562;18.414;2022-08-19T09:37:52;98692.09;;;29.05;100.00
68193;BME280;55012;47.562;18.414;2022-08-19T09:40:18;98691.59;;;29.06;100.00
68193;BME280;55012;47.562;18.414;2022-08-19T09:42:45;98694.94;;;29.10;100.00
68193;BME280;55012;47.562;18.414;2022-08-19T09:45:16;98684.28;;;29.09;100.00
68193;BME280;55012;47.562;18.414;2022-08-19T09:47:42;98695.22;;;29.13;100.00
68193;BME280;55012;47.562;18.414;2022-08-19T09:50:10;98693.56;;;29.21;100.00
68193;BME280;55012;47.562;18.414;2022-08-19T09:52:37;98691.63;;;29.27;100.00
68193;BME280;55012;47.562;18.414;2022-08-19T09:55:04;98696.78;;;29.34;100.00
68193;BME280;55012;47.562;18.414;2022-08-19T09:57:30;98688.53;;;29.60;100.00
68193;BME280;55012;47.562;18.414;2022-08-19T09:59:55;98688.69;;;29.51;100.00
68193;BME280;55012;47.562;18.414;2022-08-19T10:02:21;98691.97;;;29.49;100.00
68193;BME280;55012;47.562;18.414;2022-08-19T10:04:46;98701.72;;;29.59;100.00
68193;BME280;55012;47.562;18.414;2022-08-19T10:07:30;98699.41;;;29.78;100.00
68193;BME280;55012;47.562;18.414;2022-08-19T10:09:56;98688.91;;;29.88;100.00
68193;BME280;55012;47.562;18.414;2022-08-19T10:12:22;98687.88;;;30.11;100.00
68193;BME280;55012;47.562;18.414;2022-08-19T10:14:48;98681.41;;;30.00;100.00
68193;BME280;55012;47.562;18.414;2022-08-19T10:17:13;98684.50;;;29.81;100.00
68193;BME280;55012;47.562;18.414;2022-08-19T10:19:40;98689.81;;;29.79;100.00
68193;BME280;55012;47.562;18.414;2022-08-19T10:22:06;98686.94;;;29.74;100.00
68193;BME280;55012;47.562;18.414;2022-08-19T10:24:33;98687.63;;;29.69;100.00
68193;BME280;55012;47.562;18.414;2022-08-19T10:27:00;98685.69;;;29.75;100.00
68193;BME280;55012;47.562;18.414;2022-08-19T10:29:29;98692.59;;;29.59;100.00
68193;BME280;55012;47.562;18.414;2022-08-19T10:31:55;98679.16;;;29.57;100.00
68193;BME280;55012;47.562;18.414;2022-08-19T10:34:21;98688.25;;;29.78;100.00
68193;BME280;55012;47.562;18.414;2022-08-19T10:36:48;98689.50;;;29.77;100.00
68193;BME280;55012;47.562;18.414;2022-08-19T10:39:13;98683.91;;;29.72;100.00
68193;BME280;55012;47.562;18.414;2022-08-19T10:41:39;98679.91;;;29.78;100.00
68193;BME280;55012;47.562;18.414;2022-08-19T10:44:08;98684.03;;;29.62;100.00
68193;BME280;55012;47.562;18.414;2022-08-19T10:46:37;98688.28;;;29.58;100.00
68193;BME280;55012;47.562;18.414;2022-08-19T10:49:05;98688.63;;;29.65;100.00
68193;BME280;55012;47.562;18.414;2022-08-19T10:51:31;98689.31;;;29.81;100.00
68193;BME280;55012;47.562;18.414;2022-08-19T10:54:16;98691.56;;;30.03;100.00
68193;BME280;55012;47.562;18.414;2022-08-19T10:56:42;98686.84;;;30.35;100.00
68193;BME280;55012;47.562;18.414;2022-08-19T10:59:22;98699.06;;;30.11;100.00
68193;BME280;55012;47.562;18.414;2022-08-19T11:01:50;98696.56;;;30.39;100.00
68193;BME280;55012;47.562;18.414;2022-08-19T11:04:17;98698.41;;;30.48;100.00
68193;BME280;55012;47.562;18.414;2022-08-19T11:06:44;98697.91;;;30.03;100.00
68193;BME280;55012;47.562;18.414;2022-08-19T11:09:17;98691.78;;;30.19;100.00
68193;BME280;55012;47.562;18.414;2022-08-19T11:11:43;98687.84;;;30.58;100.00
68193;BME280;55012;47.562;18.414;2022-08-19T11:14:14;98689.75;;;31.09;100.00
68193;BME280;55012;47.562;18.414;2022-08-19T11:16:41;98678.72;;;31.26;100.00
68193;BME280;55012;47.562;18.414;2022-08-19T11:19:09;98683.53;;;31.25;100.00
68193;BME280;55012;47.562;18.414;2022-08-19T11:21:37;98669.28;;;30.86;100.00
68193;BME280;55012;47.562;18.414;2022-08-19T11:24:15;98677.59;;;31.12;100.00
68193;BME280;55012;47.562;18.414;2022-08-19T11:26:43;98682.94;;;31.53;100.00
68193;BME280;55012;47.562;18.414;2022-08-19T11:29:10;98677.25;;;32.01;100.00
68193;BME280;55012;47.562;18.414;2022-08-19T11:31:37;98670.69;;;32.21;100.00
68193;BME280;55012;47.562;18.414;2022-08-19T11:34:06;98662.78;;;32.08;100.00
68193;BME280;55012;47.562;18.414;2022-08-19T11:36:33;98661.06;;;32.33;100.00
68193;BME280;55012;47.562;18.414;2022-08-19T11:39:00;98651.41;;;32.57;100.00
68193;BME280;55012;47.562;18.414;2022-08-19T11:41:26;98656.47;;;31.48;100.00
68193;BME280;55012;47.562;18.414;2022-08-19T11:43:52;98662.22;;;31.88;100.00
68193;BME280;55012;47.562;18.414;2022-08-19T11:46:21;98650.91;;;32.47;100.00
68193;BME280;55012;47.562;18.414;2022-08-19T11:48:47;98648.84;;;32.98;100.00
68193;BME280;55012;47.562;18.414;2022-08-19T11:51:20;98641.09;;;33.32;100.00
68193;BME280;55012;47.562;18.414;2022-08-19T11:53:46;98646.91;;;33.51;100.00
68193;BME280;55012;47.562;18.414;2022-08-19T11:56:12;98665.66;;;32.42;100.00
68193;BME280;55012;47.562;18.414;2022-08-19T11:58:38;98668.97;;;32.40;100.00
68193;BME280;55012;47.562;18.414;2022-08-19T12:01:06;98658.53;;;32.97;100.00
68193;BME280;55012;47.562;18.414;2022-08-19T12:03:33;98648.72;;;33.43;100.00
68193;BME280;55012;47.562;18.414;2022-08-19T12:06:09;98664.31;;;33.21;100.00
68193;BME280;55012;47.562;18.414;2022-08-19T12:08:38;98659.56;;;32.77;100.00
68193;BME280;55012;47.562;18.414;2022-08-19T12:11:03;98671.50;;;32.66;100.00
68193;BME280;55012;47.562;18.414;2022-08-19T12:13:30;98659.53;;;32.83;100.00
68193;BME280;55012;47.562;18.414;2022-08-19T12:15:56;98676.84;;;32.36;100.00
68193;BME280;55012;47.562;18.414;2022-08-19T12:18:22;98670.66;;;32.10;100.00
68193;BME280;55012;47.562;18.414;2022-08-19T12:20:50;98659.22;;;32.08;100.00
68193;BME280;55012;47.562;18.414;2022-08-19T12:23:17;98665.78;;;31.88;100.00
68193;BME280;55012;47.562;18.414;2022-08-19T12:25:45;98652.34;;;32.09;100.00
68193;BME280;55012;47.562;18.414;2022-08-19T12:28:15;98647.81;;;32.34;100.00
68193;BME280;55012;47.562;18.414;2022-08-19T12:30:41;98661.03;;;32.22;100.00
68193;BME280;55012;47.562;18.414;2022-08-19T12:33:08;98671.44;;;32.05;100.00
68193;BME280;55012;47.562;18.414;2022-08-19T12:35:33;98674.69;;;31.86;100.00
68193;BME280;55012;47.562;18.414;2022-08-19T12:37:59;98644.84;;;31.18;100.00
68193;BME280;55012;47.562;18.414;2022-08-19T12:40:25;98703.72;;;30.46;100.00
68193;BME280;55012;47.562;18.414;2022-08-19T12:42:50;98725.81;;;30.49;100.00
68193;BME280;55012;47.562;18.414;2022-08-19T12:45:16;98746.19;;;30.30;100.00
68193;BME280;55012;47.562;18.414;2022-08-19T12:47:41;98732.16;;;30.04;100.00
68193;BME280;55012;47.562;18.414;2022-08-19T12:50:08;98766.22;;;29.87;100.00
68193;BME280;55012;47.562;18.414;2022-08-19T12:52:35;98749.03;;;29.54;100.00
68193;BME280;55012;47.562;18.414;2022-08-19T12:55:06;98778.72;;;29.42;100.00